sensor_id;sensor_type;location;lat;lon;timestamp;pressure;altitude;pressure_sealevel;temperature;humidity
62725;BME280;49026;52.600;4.694;2023-04-22T00:01:13;100824.41;;;7.67;92.73
62725;BME280;49026;52.600;4.694;2023-04-22T00:03:39;100841.09;;;7.63;91.16
62725;BME280;49026;52.600;4.694;2023-04-22T00:06:08;100826.47;;;7.55;92.45
62725;BME280;49026;52.600;4.694;2023-04-22T00:08:33;100830.97;;;7.50;92.46
62725;BME280;49026;52.600;4.694;2023-04-22T00:11:04;100832.78;;;7.47;90.77
62725;BME280;49026;52.600;4.694;2023-04-22T00:13:30;100829.44;;;7.41;90.02
62725;BME280;49026;52.600;4.694;2023-04-22T00:15:56;100833.06;;;7.37;92.20
62725;BME280;49026;52.600;4.694;2023-04-22T00:18:21;100829.72;;;7.32;96.25
62725;BME280;49026;52.600;4.694;2023-04-22T00:20:49;100833.28;;;7.28;95.60
62725;BME280;49026;52.600;4.694;2023-04-22T00:23:15;100836.91;;;7.24;95.58
62725;BME280;49026;52.600;4.694;2023-04-22T00:25:40;100840.41;;;7.23;97.62
62725;BME280;49026;52.600;4.694;2023-04-22T00:28:08;100848.31;;;7.20;95.19
62725;BME280;49026;52.600;4.694;2023-04-22T00:30:34;100844.97;;;7.15;94.11
62725;BME280;49026;52.600;4.694;2023-04-22T00:32:59;100851.97;;;7.14;95.28
62725;BME280;49026;52.600;4.694;2023-04-22T00:35:25;100849.50;;;7.08;93.83
62725;BME280;49026;52.600;4.694;2023-04-22T00:37:50;100865.34;;;7.02;93.19
62725;BME280;49026;52.600;4.694;2023-04-22T00:40:15;100861.16;;;6.95;94.09
62725;BME280;49026;52.600;4.694;2023-04-22T00:42:42;100858.75;;;6.87;90.65
62725;BME280;49026;52.600;4.694;2023-04-22T00:45:11;100856.25;;;6.82;91.86
62725;BME280;49026;52.600;4.694;2023-04-22T00:47:39;100858.06;;;6.79;94.07
62725;BME280;49026;52.600;4.694;2023-04-22T00:50:09;100861.63;;;6.75;91.54
62725;BME280;49026;52.600;4.694;2023-04-22T00:52:34;100860.88;;;6.70;91.23
62725;BME280;49026;52.600;4.694;2023-04-22T00:54:59;100855.72;;;6.66;89.34
62725;BME280;49026;52.600;4.694;2023-04-22T00:57:25;100853.19;;;6.65;90.66
62725;BME280;49026;52.600;4.694;2023-04-22T00:59:51;100856.66;;;6.65;89.32
62725;BME280;49026;52.600;4.694;2023-04-22T01:02:17;100860.13;;;6.64;85.81
62725;BME280;49026;52.600;4.694;2023-04-22T01:04:43;100860.19;;;6.61;83.91
62725;BME280;49026;52.600;4.694;2023-04-22T01:07:08;100855.00;;;6.60;83.28
62725;BME280;49026;52.600;4.694;2023-04-22T01:09:33;100850.75;;;6.57;83.03
62725;BME280;49026;52.600;4.694;2023-04-22T01:11:59;100862.06;;;6.56;83.52
62725;BME280;49026;52.600;4.694;2023-04-22T01:14:25;100855.19;;;6.54;82.17
62725;BME280;49026;52.600;4.694;2023-04-22T01:16:53;100856.09;;;6.51;82.31
62725;BME280;49026;52.600;4.694;2023-04-22T01:19:19;100848.28;;;6.49;81.78
62725;BME280;49026;52.600;4.694;2023-04-22T01:21:46;100849.22;;;6.48;81.48
62725;BME280;49026;52.600;4.694;2023-04-22T01:24:11;100851.84;;;6.47;84.25
62725;BME280;49026;52.600;4.694;2023-04-22T01:26:37;100844.09;;;6.44;84.22
62725;BME280;49026;52.600;4.694;2023-04-22T01:29:04;100845.88;;;6.42;85.57
62725;BME280;49026;52.600;4.694;2023-04-22T01:31:29;100850.31;;;6.38;83.00
62725;BME280;49026;52.600;4.694;2023-04-22T01:33:55;100840.00;;;6.32;81.78
62725;BME280;49026;52.600;4.694;2023-04-22T01:36:23;100847.06;;;6.28;80.64
62725;BME280;49026;52.600;4.694;2023-04-22T01:38:48;100837.56;;;6.24;79.08
62725;BME280;49026;52.600;4.694;2023-04-22T01:41:16;100837.63;;;6.21;78.04
62725;BME280;49026;52.600;4.694;2023-04-22T01:43:42;100842.94;;;6.18;80.76
62725;BME280;49026;52.600;4.694;2023-04-22T01:46:08;100842.13;;;6.15;80.12
62725;BME280;49026;52.600;4.694;2023-04-22T01:48:34;100845.69;;;6.10;78.76
62725;BME280;49026;52.600;4.694;2023-04-22T01:51:00;100852.69;;;6.10;77.82
62725;BME280;49026;52.600;4.694;2023-04-22T01:53:26;100848.34;;;6.09;77.75
62725;BME280;49026;52.600;4.694;2023-04-22T01:55:51;100841.38;;;6.08;77.22
62725;BME280;49026;52.600;4.694;2023-04-22T01:58:19;100841.38;;;6.08;77.52
62725;BME280;49026;52.600;4.694;2023-04-22T02:00:46;100844.88;;;6.08;81.97
62725;BME280;49026;52.600;4.694;2023-04-22T02:03:12;100841.31;;;6.11;81.82
62725;BME280;49026;52.600;4.694;2023-04-22T02:05:38;100844.84;;;6.10;81.00
62725;BME280;49026;52.600;4.694;2023-04-22T02:08:03;100837.09;;;6.07;80.78
62725;BME280;49026;52.600;4.694;2023-04-22T02:10:29;100836.16;;;6.08;79.74
62725;BME280;49026;52.600;4.694;2023-04-22T02:12:54;100833.66;;;6.05;78.36
62725;BME280;49026;52.600;4.694;2023-04-22T02:15:22;100833.75;;;6.00;77.85
62725;BME280;49026;52.600;4.694;2023-04-22T02:17:47;100844.22;;;5.99;77.21
62725;BME280;49026;52.600;4.694;2023-04-22T02:20:13;100851.22;;;5.97;77.23
62725;BME280;49026;52.600;4.694;2023-04-22T02:22:41;100852.06;;;5.96;76.84
62725;BME280;49026;52.600;4.694;2023-04-22T02:25:08;100851.28;;;5.92;75.95
62725;BME280;49026;52.600;4.694;2023-04-22T02:27:33;100847.03;;;5.86;76.02
62725;BME280;49026;52.600;4.694;2023-04-22T02:29:58;100840.16;;;5.82;76.57
62725;BME280;49026;52.600;4.694;2023-04-22T02:32:24;100848.88;;;5.81;76.76
62725;BME280;49026;52.600;4.694;2023-04-22T02:34:49;100848.94;;;5.78;75.73
62725;BME280;49026;52.600;4.694;2023-04-22T02:37:17;100848.13;;;5.74;75.53
62725;BME280;49026;52.600;4.694;2023-04-22T02:39:43;100843.84;;;5.72;74.76
62725;BME280;49026;52.600;4.694;2023-04-22T02:42:08;100844.81;;;5.66;74.37
62725;BME280;49026;52.600;4.694;2023-04-22T02:44:33;100844.06;;;5.60;73.90
62725;BME280;49026;52.600;4.694;2023-04-22T02:47:01;100842.44;;;5.55;74.27
62725;BME280;49026;52.600;4.694;2023-04-22T02:49:27;100846.84;;;5.52;74.50
62725;BME280;49026;52.600;4.694;2023-04-22T02:51:53;100843.47;;;5.47;73.77
62725;BME280;49026;52.600;4.694;2023-04-22T02:54:18;100850.53;;;5.42;74.40
62725;BME280;49026;52.600;4.694;2023-04-22T02:56:46;100841.91;;;5.38;74.59
62725;BME280;49026;52.600;4.694;2023-04-22T02:59:11;100848.00;;;5.37;74.45
62725;BME280;49026;52.600;4.694;2023-04-22T03:01:36;100833.22;;;5.36;74.22
62725;BME280;49026;52.600;4.694;2023-04-22T03:04:04;100841.97;;;5.35;74.60
62725;BME280;49026;52.600;4.694;2023-04-22T03:06:29;100834.13;;;5.35;75.33
62725;BME280;49026;52.600;4.694;2023-04-22T03:08:58;100828.03;;;5.34;74.75
62725;BME280;49026;52.600;4.694;2023-04-22T03:11:23;100826.41;;;5.30;73.98
62725;BME280;49026;52.600;4.694;2023-04-22T03:13:51;100823.00;;;5.27;73.69
62725;BME280;49026;52.600;4.694;2023-04-22T03:16:16;100820.44;;;5.24;73.71
62725;BME280;49026;52.600;4.694;2023-04-22T03:18:41;100818.78;;;5.19;73.40
62725;BME280;49026;52.600;4.694;2023-04-22T03:21:07;100816.25;;;5.16;74.02
62725;BME280;49026;52.600;4.694;2023-04-22T03:23:32;100818.00;;;5.14;74.27
62725;BME280;49026;52.600;4.694;2023-04-22T03:25:57;100818.91;;;5.12;73.99
62725;BME280;49026;52.600;4.694;2023-04-22T03:28:23;100816.31;;;5.12;75.02
62725;BME280;49026;52.600;4.694;2023-04-22T03:30:48;100814.59;;;5.11;74.62
62725;BME280;49026;52.600;4.694;2023-04-22T03:33:13;100811.19;;;5.07;73.71
62725;BME280;49026;52.600;4.694;2023-04-22T03:35:39;100804.31;;;5.03;75.71
62725;BME280;49026;52.600;4.694;2023-04-22T03:38:04;100800.78;;;5.06;74.97
62725;BME280;49026;52.600;4.694;2023-04-22T03:40:31;100793.88;;;5.05;75.45
62725;BME280;49026;52.600;4.694;2023-04-22T03:42:57;100793.00;;;5.04;75.73
62725;BME280;49026;52.600;4.694;2023-04-22T03:45:22;100786.97;;;5.02;75.04
62725;BME280;49026;52.600;4.694;2023-04-22T03:47:50;100783.53;;;5.00;74.70
62725;BME280;49026;52.600;4.694;2023-04-22T03:50:15;100786.19;;;4.97;75.69
62725;BME280;49026;52.600;4.694;2023-04-22T03:52:40;100784.47;;;4.96;75.65
62725;BME280;49026;52.600;4.694;2023-04-22T03:55:06;100783.63;;;4.95;75.78
62725;BME280;49026;52.600;4.694;2023-04-22T03:57:31;100765.47;;;4.91;75.26
62725;BME280;49026;52.600;4.694;2023-04-22T03:59:59;100772.44;;;4.89;74.60
62725;BME280;49026;52.600;4.694;2023-04-22T04:02:29;100780.34;;;4.84;75.31
62725;BME280;49026;52.600;4.694;2023-04-22T04:04:55;100779.50;;;4.82;74.84
62725;BME280;49026;52.600;4.694;2023-04-22T04:07:20;100774.34;;;4.79;75.00
62725;BME280;49026;52.600;4.694;2023-04-22T04:09:47;100783.94;;;4.77;74.45
62725;BME280;49026;52.600;4.694;2023-04-22T04:12:17;100788.34;;;4.73;74.77
62725;BME280;49026;52.600;4.694;2023-04-22T04:14:42;100781.44;;;4.69;74.63
62725;BME280;49026;52.600;4.694;2023-04-22T04:17:10;100779.81;;;4.65;74.42
62725;BME280;49026;52.600;4.694;2023-04-22T04:19:38;100776.38;;;4.63;74.78
62725;BME280;49026;52.600;4.694;2023-04-22T04:22:03;100779.88;;;4.59;74.66
62725;BME280;49026;52.600;4.694;2023-04-22T04:24:29;100774.72;;;4.56;74.25
62725;BME280;49026;52.600;4.694;2023-04-22T04:26:54;100772.16;;;4.54;74.02
62725;BME280;49026;52.600;4.694;2023-04-22T04:29:22;100766.94;;;4.54;73.92
62725;BME280;49026;52.600;4.694;2023-04-22T04:31:55;100771.31;;;4.54;73.43
62725;BME280;49026;52.600;4.694;2023-04-22T04:34:23;100776.50;;;4.54;73.76
62725;BME280;49026;52.600;4.694;2023-04-22T04:36:48;100774.72;;;4.56;73.69
62725;BME280;49026;52.600;4.694;2023-04-22T04:39:13;100773.06;;;4.53;73.39
62725;BME280;49026;52.600;4.694;2023-04-22T04:41:43;100768.72;;;4.52;73.60
62725;BME280;49026;52.600;4.694;2023-04-22T04:44:09;100770.50;;;4.50;74.69
62725;BME280;49026;52.600;4.694;2023-04-22T04:46:37;100774.84;;;4.50;74.46
62725;BME280;49026;52.600;4.694;2023-04-22T04:49:02;100779.19;;;4.49;73.95
62725;BME280;49026;52.600;4.694;2023-04-22T04:51:29;100766.13;;;4.51;74.23
62725;BME280;49026;52.600;4.694;2023-04-22T04:53:56;100767.81;;;4.55;73.74
62725;BME280;49026;52.600;4.694;2023-04-22T04:56:22;100773.84;;;4.58;73.79
62725;BME280;49026;52.600;4.694;2023-04-22T04:58:48;100768.53;;;4.64;74.05
62725;BME280;49026;52.600;4.694;2023-04-22T05:01:13;100772.72;;;4.73;73.88
62725;BME280;49026;52.600;4.694;2023-04-22T05:03:39;100769.06;;;4.83;74.12
62725;BME280;49026;52.600;4.694;2023-04-22T05:06:05;100759.34;;;4.93;74.12
62725;BME280;49026;52.600;4.694;2023-04-22T05:08:33;100768.69;;;5.05;74.57
62725;BME280;49026;52.600;4.694;2023-04-22T05:10:58;100766.75;;;5.16;74.99
62725;BME280;49026;52.600;4.694;2023-04-22T05:13:26;100769.16;;;5.26;75.46
62725;BME280;49026;52.600;4.694;2023-04-22T05:15:55;100773.44;;;5.30;75.40
62725;BME280;49026;52.600;4.694;2023-04-22T05:18:20;100771.63;;;5.33;74.76
62725;BME280;49026;52.600;4.694;2023-04-22T05:20:46;100774.06;;;5.41;74.81
62725;BME280;49026;52.600;4.694;2023-04-22T05:23:11;100767.91;;;5.45;75.78
62725;BME280;49026;52.600;4.694;2023-04-22T05:25:36;100771.34;;;5.47;75.14
62725;BME280;49026;52.600;4.694;2023-04-22T05:28:02;100772.13;;;5.51;75.80
62725;BME280;49026;52.600;4.694;2023-04-22T05:30:28;100769.50;;;5.52;75.31
62725;BME280;49026;52.600;4.694;2023-04-22T05:32:53;100778.09;;;5.57;76.80
62725;BME280;49026;52.600;4.694;2023-04-22T05:35:19;100773.63;;;5.63;76.66
62725;BME280;49026;52.600;4.694;2023-04-22T05:37:44;100764.88;;;5.67;75.48
62725;BME280;49026;52.600;4.694;2023-04-22T05:40:10;100770.78;;;5.75;75.35
62725;BME280;49026;52.600;4.694;2023-04-22T05:42:36;100777.53;;;5.85;75.73
62725;BME280;49026;52.600;4.694;2023-04-22T05:45:05;100777.31;;;5.96;76.36
62725;BME280;49026;52.600;4.694;2023-04-22T05:47:34;100775.25;;;6.10;76.41
62725;BME280;49026;52.600;4.694;2023-04-22T05:50:02;100768.16;;;6.17;76.40
62725;BME280;49026;52.600;4.694;2023-04-22T05:52:28;100778.44;;;6.23;75.81
62725;BME280;49026;52.600;4.694;2023-04-22T05:54:53;100777.38;;;6.32;76.00
62725;BME280;49026;52.600;4.694;2023-04-22T05:57:18;100787.63;;;6.40;75.61
62725;BME280;49026;52.600;4.694;2023-04-22T05:59:44;100778.84;;;6.44;76.36
62725;BME280;49026;52.600;4.694;2023-04-22T06:02:10;100777.78;;;6.51;75.55
62725;BME280;49026;52.600;4.694;2023-04-22T06:04:36;100781.84;;;6.63;76.00
62725;BME280;49026;52.600;4.694;2023-04-22T06:07:01;100779.06;;;6.71;75.50
62725;BME280;49026;52.600;4.694;2023-04-22T06:09:29;100781.53;;;6.77;75.88
62725;BME280;49026;52.600;4.694;2023-04-22T06:11:55;100770.84;;;6.84;75.63
62725;BME280;49026;52.600;4.694;2023-04-22T06:14:20;100773.28;;;6.92;76.11
62725;BME280;49026;52.600;4.694;2023-04-22T06:16:46;100781.78;;;7.00;76.57
62725;BME280;49026;52.600;4.694;2023-04-22T06:19:11;100776.38;;;7.07;76.55
62725;BME280;49026;52.600;4.694;2023-04-22T06:21:37;100768.44;;;7.10;76.37
62725;BME280;49026;52.600;4.694;2023-04-22T06:24:04;100766.44;;;7.19;75.59
62725;BME280;49026;52.600;4.694;2023-04-22T06:26:33;100763.81;;;7.21;76.14
62725;BME280;49026;52.600;4.694;2023-04-22T06:28:59;100769.75;;;7.26;76.68
62725;BME280;49026;52.600;4.694;2023-04-22T06:31:24;100768.78;;;7.30;76.24
62725;BME280;49026;52.600;4.694;2023-04-22T06:33:49;100765.09;;;7.37;75.90
62725;BME280;49026;52.600;4.694;2023-04-22T06:36:15;100769.19;;;7.46;75.97
62725;BME280;49026;52.600;4.694;2023-04-22T06:38:49;100759.38;;;7.54;76.21
62725;BME280;49026;52.600;4.694;2023-04-22T06:41:16;100750.38;;;7.65;76.84
62725;BME280;49026;52.600;4.694;2023-04-22T06:43:42;100753.47;;;7.77;76.38
62725;BME280;49026;52.600;4.694;2023-04-22T06:46:11;100746.13;;;7.90;76.64
62725;BME280;49026;52.600;4.694;2023-04-22T06:48:40;100749.13;;;8.06;76.90
62725;BME280;49026;52.600;4.694;2023-04-22T06:51:06;100753.72;;;8.26;77.22
62725;BME280;49026;52.600;4.694;2023-04-22T06:53:32;100747.97;;;8.42;77.31
62725;BME280;49026;52.600;4.694;2023-04-22T06:55:57;100744.13;;;8.53;76.77
62725;BME280;49026;52.600;4.694;2023-04-22T06:58:23;100744.72;;;8.62;77.60
62725;BME280;49026;52.600;4.694;2023-04-22T07:00:48;100724.38;;;8.70;77.36
62725;BME280;49026;52.600;4.694;2023-04-22T07:03:14;100727.38;;;8.84;78.03
62725;BME280;49026;52.600;4.694;2023-04-22T07:05:39;100725.38;;;8.93;78.05
62725;BME280;49026;52.600;4.694;2023-04-22T07:08:04;100725.03;;;9.02;78.05
62725;BME280;49026;52.600;4.694;2023-04-22T07:10:30;100725.41;;;9.16;78.18
62725;BME280;49026;52.600;4.694;2023-04-22T07:12:55;100722.38;;;9.27;78.38
62725;BME280;49026;52.600;4.694;2023-04-22T07:15:21;100714.97;;;9.38;78.31
62725;BME280;49026;52.600;4.694;2023-04-22T07:17:46;100723.56;;;9.42;77.98
62725;BME280;49026;52.600;4.694;2023-04-22T07:20:12;100729.75;;;9.41;78.71
62725;BME280;49026;52.600;4.694;2023-04-22T07:22:37;100730.94;;;9.56;78.81
62725;BME280;49026;52.600;4.694;2023-04-22T07:25:03;100733.03;;;9.70;78.75
62725;BME280;49026;52.600;4.694;2023-04-22T07:27:31;100732.56;;;9.82;79.20
62725;BME280;49026;52.600;4.694;2023-04-22T07:29:57;100738.13;;;9.96;79.25
62725;BME280;49026;52.600;4.694;2023-04-22T07:32:22;100732.53;;;10.06;79.67
62725;BME280;49026;52.600;4.694;2023-04-22T07:34:51;100731.97;;;10.19;79.53
62725;BME280;49026;52.600;4.694;2023-04-22T07:37:17;100727.13;;;10.32;79.98
62725;BME280;49026;52.600;4.694;2023-04-22T07:39:45;100739.34;;;10.54;80.19
62725;BME280;49026;52.600;4.694;2023-04-22T07:42:10;100741.06;;;10.75;80.38
62725;BME280;49026;52.600;4.694;2023-04-22T07:44:36;100735.91;;;10.94;80.46
62725;BME280;49026;52.600;4.694;2023-04-22T07:47:02;100739.75;;;11.06;80.95
62725;BME280;49026;52.600;4.694;2023-04-22T07:49:27;100732.09;;;11.21;81.60
62725;BME280;49026;52.600;4.694;2023-04-22T07:51:53;100726.38;;;11.31;81.44
62725;BME280;49026;52.600;4.694;2023-04-22T07:54:18;100718.34;;;11.35;81.89
62725;BME280;49026;52.600;4.694;2023-04-22T07:56:44;100717.06;;;11.43;82.19
62725;BME280;49026;52.600;4.694;2023-04-22T07:59:09;100718.06;;;11.60;82.40
62725;BME280;49026;52.600;4.694;2023-04-22T08:01:35;100719.34;;;11.70;82.67
62725;BME280;49026;52.600;4.694;2023-04-22T08:04:00;100711.50;;;11.87;83.06
62725;BME280;49026;52.600;4.694;2023-04-22T08:06:29;100709.44;;;12.13;83.27
62725;BME280;49026;52.600;4.694;2023-04-22T08:08:59;100710.94;;;12.36;83.52
62725;BME280;49026;52.600;4.694;2023-04-22T08:11:25;100713.06;;;12.65;83.97
62725;BME280;49026;52.600;4.694;2023-04-22T08:13:56;100724.19;;;12.87;84.68
62725;BME280;49026;52.600;4.694;2023-04-22T08:16:22;100718.13;;;13.03;84.32
62725;BME280;49026;52.600;4.694;2023-04-22T08:18:47;100717.28;;;13.02;84.00
62725;BME280;49026;52.600;4.694;2023-04-22T08:21:13;100717.97;;;13.06;85.02
62725;BME280;49026;52.600;4.694;2023-04-22T08:23:40;100725.66;;;13.26;85.29
62725;BME280;49026;52.600;4.694;2023-04-22T08:26:06;100727.53;;;13.42;85.05
62725;BME280;49026;52.600;4.694;2023-04-22T08:28:32;100716.03;;;13.43;85.54
62725;BME280;49026;52.600;4.694;2023-04-22T08:30:58;100696.38;;;13.48;86.06
62725;BME280;49026;52.600;4.694;2023-04-22T08:33:23;100699.88;;;13.65;86.46
62725;BME280;49026;52.600;4.694;2023-04-22T08:35:49;100698.28;;;13.78;86.97
62725;BME280;49026;52.600;4.694;2023-04-22T08:38:14;100694.09;;;13.90;87.89
62725;BME280;49026;52.600;4.694;2023-04-22T08:40:45;100691.50;;;14.04;87.77
62725;BME280;49026;52.600;4.694;2023-04-22T08:43:11;100692.66;;;14.31;89.04
62725;BME280;49026;52.600;4.694;2023-04-22T08:45:38;100695.69;;;14.39;89.40
62725;BME280;49026;52.600;4.694;2023-04-22T08:48:04;100683.78;;;14.32;89.81
62725;BME280;49026;52.600;4.694;2023-04-22T08:50:31;100678.22;;;14.36;90.75
62725;BME280;49026;52.600;4.694;2023-04-22T08:52:58;100672.75;;;14.39;91.11
62725;BME280;49026;52.600;4.694;2023-04-22T08:55:24;100662.19;;;14.39;91.32
62725;BME280;49026;52.600;4.694;2023-04-22T08:57:49;100667.44;;;14.25;91.26
62725;BME280;49026;52.600;4.694;2023-04-22T09:00:16;100670.94;;;14.25;92.06
62725;BME280;49026;52.600;4.694;2023-04-22T09:02:43;100672.50;;;14.44;92.45
62725;BME280;49026;52.600;4.694;2023-04-22T09:05:14;100672.03;;;14.82;93.41
62725;BME280;49026;52.600;4.694;2023-04-22T09:07:42;100675.34;;;15.14;93.57
62725;BME280;49026;52.600;4.694;2023-04-22T09:10:08;100685.31;;;15.52;93.98
62725;BME280;49026;52.600;4.694;2023-04-22T09:12:37;100677.16;;;15.84;93.65
62725;BME280;49026;52.600;4.694;2023-04-22T09:15:06;100687.09;;;16.08;93.30
62725;BME280;49026;52.600;4.694;2023-04-22T09:17:34;100679.72;;;15.99;92.01
62725;BME280;49026;52.600;4.694;2023-04-22T09:20:03;100673.75;;;15.68;91.96
62725;BME280;49026;52.600;4.694;2023-04-22T09:22:40;100684.78;;;15.47;90.77
62725;BME280;49026;52.600;4.694;2023-04-22T09:25:14;100681.94;;;15.50;90.91
62725;BME280;49026;52.600;4.694;2023-04-22T09:27:40;100685.28;;;15.67;90.05
62725;BME280;49026;52.600;4.694;2023-04-22T09:30:08;100684.38;;;15.95;89.83
62725;BME280;49026;52.600;4.694;2023-04-22T09:32:36;100683.22;;;16.26;89.82
62725;BME280;49026;52.600;4.694;2023-04-22T09:35:03;100679.34;;;16.45;89.36
62725;BME280;49026;52.600;4.694;2023-04-22T09:37:31;100670.31;;;16.60;89.70
62725;BME280;49026;52.600;4.694;2023-04-22T09:39:57;100655.50;;;16.83;80.05
62725;BME280;49026;52.600;4.694;2023-04-22T09:42:25;100660.81;;;17.09;85.33
62725;BME280;49026;52.600;4.694;2023-04-22T09:44:51;100664.34;;;17.47;86.19
62725;BME280;49026;52.600;4.694;2023-04-22T09:47:19;100656.75;;;17.66;85.72
62725;BME280;49026;52.600;4.694;2023-04-22T09:49:48;100656.03;;;17.64;86.06
62725;BME280;49026;52.600;4.694;2023-04-22T09:52:21;100662.28;;;17.63;85.07
62725;BME280;49026;52.600;4.694;2023-04-22T09:54:49;100651.16;;;17.58;84.00
62725;BME280;49026;52.600;4.694;2023-04-22T09:57:16;100651.50;;;17.77;84.75
62725;BME280;49026;52.600;4.694;2023-04-22T09:59:42;100657.00;;;17.87;82.32
62725;BME280;49026;52.600;4.694;2023-04-22T10:02:09;100648.59;;;17.81;82.00
62725;BME280;49026;52.600;4.694;2023-04-22T10:04:38;100639.41;;;17.73;81.65
62725;BME280;49026;52.600;4.694;2023-04-22T10:07:03;100634.00;;;17.62;81.31
62725;BME280;49026;52.600;4.694;2023-04-22T10:09:28;100633.59;;;17.31;80.33
62725;BME280;49026;52.600;4.694;2023-04-22T10:11:55;100627.78;;;16.75;80.12
62725;BME280;49026;52.600;4.694;2023-04-22T10:14:22;100619.31;;;16.44;80.70
62725;BME280;49026;52.600;4.694;2023-04-22T10:16:49;100615.56;;;16.34;80.01
62725;BME280;49026;52.600;4.694;2023-04-22T10:19:20;100615.88;;;16.16;78.64
62725;BME280;49026;52.600;4.694;2023-04-22T10:21:48;100630.34;;;15.98;78.30
62725;BME280;49026;52.600;4.694;2023-04-22T10:24:18;100636.56;;;15.69;77.45
62725;BME280;49026;52.600;4.694;2023-04-22T10:29:17;100663.81;;;15.15;77.03
62725;BME280;49026;52.600;4.694;2023-04-22T10:34:43;100666.75;;;14.52;76.58
62725;BME280;49026;52.600;4.694;2023-04-22T10:37:11;100674.41;;;14.26;76.03
62725;BME280;49026;52.600;4.694;2023-04-22T10:39:38;100688.28;;;13.99;75.74
62725;BME280;49026;52.600;4.694;2023-04-22T10:42:15;100677.56;;;13.70;75.58
62725;BME280;49026;52.600;4.694;2023-04-22T10:52:37;100707.81;;;13.31;75.04
62725;BME280;49026;52.600;4.694;2023-04-22T10:55:03;100708.47;;;13.37;75.21
62725;BME280;49026;52.600;4.694;2023-04-22T10:57:36;100706.06;;;13.48;75.21
62725;BME280;49026;52.600;4.694;2023-04-22T11:00:29;100707.94;;;13.46;74.67
62725;BME280;49026;52.600;4.694;2023-04-22T11:05:30;100700.72;;;13.33;75.07
62725;BME280;49026;52.600;4.694;2023-04-22T11:08:02;100695.59;;;13.13;75.02
62725;BME280;49026;52.600;4.694;2023-04-22T11:10:34;100693.91;;;12.94;74.86
62725;BME280;49026;52.600;4.694;2023-04-22T11:13:05;100700.00;;;12.79;74.62
62725;BME280;49026;52.600;4.694;2023-04-22T11:15:31;100698.91;;;12.66;75.16
62725;BME280;49026;52.600;4.694;2023-04-22T11:17:57;100690.69;;;12.54;74.68
62725;BME280;49026;52.600;4.694;2023-04-22T11:20:22;100697.38;;;12.27;74.28
62725;BME280;49026;52.600;4.694;2023-04-22T11:22:51;100694.22;;;12.01;74.33
62725;BME280;49026;52.600;4.694;2023-04-22T11:25:17;100687.31;;;11.79;74.72
62725;BME280;49026;52.600;4.694;2023-04-22T11:27:44;100686.03;;;11.69;74.58
62725;BME280;49026;52.600;4.694;2023-04-22T11:30:16;100684.78;;;11.59;74.53
62725;BME280;49026;52.600;4.694;2023-04-22T11:32:44;100694.25;;;11.63;74.75
62725;BME280;49026;52.600;4.694;2023-04-22T11:35:29;100689.28;;;11.57;74.38
62725;BME280;49026;52.600;4.694;2023-04-22T11:38:01;100675.88;;;11.42;74.06
62725;BME280;49026;52.600;4.694;2023-04-22T11:40:34;100677.81;;;11.20;74.14
62725;BME280;49026;52.600;4.694;2023-04-22T11:43:02;100675.06;;;11.02;74.46
62725;BME280;49026;52.600;4.694;2023-04-22T11:45:31;100670.31;;;10.91;74.52
62725;BME280;49026;52.600;4.694;2023-04-22T11:47:57;100673.13;;;10.87;74.64
62725;BME280;49026;52.600;4.694;2023-04-22T11:50:25;100675.88;;;10.84;74.44
62725;BME280;49026;52.600;4.694;2023-04-22T11:53:02;100680.56;;;10.77;73.82
62725;BME280;49026;52.600;4.694;2023-04-22T11:55:33;100680.50;;;10.58;73.71
62725;BME280;49026;52.600;4.694;2023-04-22T11:58:15;100693.56;;;10.39;73.78
62725;BME280;49026;52.600;4.694;2023-04-22T12:00:48;100687.00;;;10.27;73.76
62725;BME280;49026;52.600;4.694;2023-04-22T12:03:22;100692.25;;;10.27;73.62
62725;BME280;49026;52.600;4.694;2023-04-22T12:05:53;100692.03;;;10.33;73.60
62725;BME280;49026;52.600;4.694;2023-04-22T12:08:21;100683.25;;;10.34;73.48
62725;BME280;49026;52.600;4.694;2023-04-22T12:10:52;100680.69;;;10.33;73.38
62725;BME280;49026;52.600;4.694;2023-04-22T12:13:26;100686.84;;;10.32;73.57
62725;BME280;49026;52.600;4.694;2023-04-22T12:16:01;100680.56;;;10.36;73.33
62725;BME280;49026;52.600;4.694;2023-04-22T12:18:38;100698.13;;;10.34;73.41
62725;BME280;49026;52.600;4.694;2023-04-22T12:23:45;100705.94;;;10.13;73.13
62725;BME280;49026;52.600;4.694;2023-04-22T12:26:14;100700.72;;;9.91;73.14
62725;BME280;49026;52.600;4.694;2023-04-22T12:28:42;100699.50;;;9.78;72.66
62725;BME280;49026;52.600;4.694;2023-04-22T12:31:08;100696.63;;;9.60;72.92
62725;BME280;49026;52.600;4.694;2023-04-22T12:33:35;100713.91;;;9.44;73.01
62725;BME280;49026;52.600;4.694;2023-04-22T12:36:00;100733.47;;;9.34;73.25
62725;BME280;49026;52.600;4.694;2023-04-22T12:38:26;100731.13;;;9.27;73.41
62725;BME280;49026;52.600;4.694;2023-04-22T12:40:52;100700.84;;;9.19;72.91
62725;BME280;49026;52.600;4.694;2023-04-22T12:43:17;100694.97;;;9.12;73.26
62725;BME280;49026;52.600;4.694;2023-04-22T12:45:43;100699.59;;;9.05;73.59
62725;BME280;49026;52.600;4.694;2023-04-22T12:48:08;100700.59;;;9.01;72.82
62725;BME280;49026;52.600;4.694;2023-04-22T12:50:33;100678.72;;;9.02;73.39
62725;BME280;49026;52.600;4.694;2023-04-22T12:52:58;100677.63;;;9.08;73.74
62725;BME280;49026;52.600;4.694;2023-04-22T12:55:24;100713.38;;;9.11;74.21
62725;BME280;49026;52.600;4.694;2023-04-22T12:57:50;100741.44;;;9.07;74.01
62725;BME280;49026;52.600;4.694;2023-04-22T13:00:16;100700.31;;;9.09;74.24
62725;BME280;49026;52.600;4.694;2023-04-22T13:02:43;100684.69;;;9.06;73.88
62725;BME280;49026;52.600;4.694;2023-04-22T13:05:09;100701.56;;;8.99;73.83
62725;BME280;49026;52.600;4.694;2023-04-22T13:07:40;100705.25;;;8.93;73.98
62725;BME280;49026;52.600;4.694;2023-04-22T13:10:07;100706.22;;;8.90;74.08
62725;BME280;49026;52.600;4.694;2023-04-22T13:12:33;100703.84;;;8.83;74.20
62725;BME280;49026;52.600;4.694;2023-04-22T13:14:58;100671.88;;;8.73;74.45